createdAt,value
2017-12-03T00:00:05.066Z,47.50
2017-12-03T00:02:33.309Z,46.97
2017-12-03T00:05:01.622Z,62.47
2017-12-03T00:07:29.934Z,45.80
2017-12-03T00:09:58.291Z,31.17
2017-12-03T00:12:27.353Z,62.07
2017-12-03T00:14:55.585Z,72.87
2017-12-03T00:17:23.948Z,101.40
2017-12-03T00:19:52.268Z,65.43
2017-12-03T00:22:21.371Z,81.80
2017-12-03T00:24:49.624Z,45.37
2017-12-03T00:27:17.980Z,41.60
2017-12-03T00:29:47.100Z,42.00
2017-12-03T00:32:15.532Z,37.60
2017-12-03T00:34:44.603Z,42.60
2017-12-03T00:37:12.996Z,53.43
2017-12-03T00:39:41.290Z,44.90
2017-12-03T00:42:10.390Z,37.07
2017-12-03T00:44:39.454Z,34.07
2017-12-03T00:47:07.700Z,33.67
2017-12-03T00:49:36.085Z,34.70
2017-12-03T00:52:04.320Z,33.20
2017-12-03T00:54:32.564Z,34.40
2017-12-03T00:57:00.902Z,36.70
2017-12-03T00:59:29.216Z,29.73
2017-12-03T01:01:57.514Z,37.47
2017-12-03T01:04:25.809Z,33.97
2017-12-03T01:06:54.132Z,27.80
2017-12-03T01:09:22.428Z,26.27
2017-12-03T01:11:51.489Z,33.30
2017-12-03T01:14:19.784Z,35.87
2017-12-03T01:16:48.077Z,34.63
2017-12-03T01:19:16.435Z,34.80
2017-12-03T01:21:44.688Z,63.93
2017-12-03T01:24:12.934Z,114.80
2017-12-03T01:26:41.256Z,73.27
2017-12-03T01:29:09.561Z,62.63
2017-12-03T01:31:38.594Z,94.47
2017-12-03T01:34:06.915Z,92.63
2017-12-03T01:36:35.197Z,162.40
2017-12-03T01:39:03.477Z,140.63
2017-12-03T01:41:31.978Z,27.47
2017-12-03T01:44:01.042Z,34.10
2017-12-03T01:46:29.324Z,36.03
2017-12-03T01:48:57.634Z,78.80
2017-12-03T01:51:25.881Z,71.83
2017-12-03T01:53:54.136Z,40.63
2017-12-03T01:56:22.425Z,123.97
2017-12-03T01:58:50.691Z,47.80
2017-12-03T02:01:18.929Z,50.63
2017-12-03T02:03:47.208Z,63.80
2017-12-03T02:06:15.448Z,39.90
2017-12-03T02:08:43.712Z,37.70
2017-12-03T02:11:12.002Z,42.90
2017-12-03T02:13:41.056Z,43.57
2017-12-03T02:16:09.313Z,51.60
2017-12-03T02:18:37.611Z,63.73
2017-12-03T02:21:05.872Z,35.50
2017-12-03T02:23:34.176Z,39.33
2017-12-03T02:26:02.455Z,36.13
2017-12-03T02:28:30.716Z,31.73
2017-12-03T02:30:58.983Z,30.13
2017-12-03T02:33:27.331Z,32.60
2017-12-03T02:35:56.360Z,29.20
2017-12-03T02:38:24.725Z,35.40
2017-12-03T02:40:54.072Z,33.67
2017-12-03T02:43:22.498Z,38.00
2017-12-03T02:45:50.789Z,33.80
2017-12-03T02:48:19.094Z,47.30
2017-12-03T02:50:47.383Z,83.47
2017-12-03T02:53:15.671Z,101.83
2017-12-03T02:55:44.002Z,53.40
2017-12-03T02:58:12.251Z,46.47
2017-12-03T03:00:40.534Z,44.20
2017-12-03T03:03:08.837Z,49.40
2017-12-03T03:05:37.131Z,47.60
2017-12-03T03:08:05.404Z,30.23
2017-12-03T03:10:34.528Z,30.27
2017-12-03T03:13:02.792Z,35.03
2017-12-03T03:15:31.047Z,27.73
2017-12-03T03:18:00.154Z,36.57
2017-12-03T03:20:28.431Z,38.93
2017-12-03T03:22:56.677Z,35.63
2017-12-03T03:25:24.988Z,31.47
2017-12-03T03:27:53.315Z,31.63
2017-12-03T03:30:21.656Z,32.13
2017-12-03T03:32:50.068Z,39.10
2017-12-03T03:35:18.328Z,38.93
2017-12-03T03:37:46.616Z,32.20
2017-12-03T03:40:14.908Z,27.93
2017-12-03T03:42:43.231Z,33.53
2017-12-03T03:45:11.576Z,31.83
2017-12-03T03:47:39.855Z,32.53
2017-12-03T03:50:08.132Z,37.97
2017-12-03T03:52:36.382Z,38.77
2017-12-03T03:55:04.659Z,42.07
2017-12-03T03:57:32.962Z,37.20
2017-12-03T04:00:01.203Z,43.03
2017-12-03T04:02:29.519Z,38.67
2017-12-03T04:04:58.586Z,39.33
2017-12-03T04:07:26.833Z,74.10
2017-12-03T04:09:55.142Z,62.60
2017-12-03T04:12:23.412Z,56.63
2017-12-03T04:14:51.642Z,35.17
2017-12-03T04:17:19.913Z,38.33
2017-12-03T04:19:48.169Z,36.40
2017-12-03T04:22:16.457Z,34.53
2017-12-03T04:24:45.537Z,34.07
2017-12-03T04:27:14.549Z,28.73
2017-12-03T04:29:43.289Z,28.73
2017-12-03T04:32:11.567Z,35.40
2017-12-03T04:34:39.843Z,34.50
2017-12-03T04:37:08.127Z,26.83
2017-12-03T04:39:36.435Z,25.37
2017-12-03T04:42:04.721Z,26.53
2017-12-03T04:44:33.021Z,23.30
2017-12-03T04:47:01.863Z,25.00
2017-12-03T04:49:30.894Z,24.40
2017-12-03T04:51:59.170Z,24.77
2017-12-03T04:54:27.463Z,23.70
2017-12-03T04:56:55.749Z,21.50
2017-12-03T04:59:24.030Z,28.57
2017-12-03T05:01:52.302Z,25.93
2017-12-03T05:04:20.548Z,30.00
2017-12-03T05:06:49.551Z,26.00
2017-12-03T05:09:17.841Z,22.47
2017-12-03T05:11:46.195Z,27.23
2017-12-03T05:14:14.560Z,29.53
2017-12-03T05:16:42.878Z,27.57
2017-12-03T05:19:11.162Z,22.73
2017-12-03T05:21:39.431Z,30.30
2017-12-03T05:24:07.760Z,27.57
2017-12-03T05:26:36.093Z,24.43
2017-12-03T05:29:04.346Z,24.03
2017-12-03T05:31:32.660Z,26.40
2017-12-03T05:34:00.908Z,36.77
2017-12-03T05:36:29.154Z,23.50
2017-12-03T05:38:57.467Z,32.13
2017-12-03T05:41:25.720Z,23.97
2017-12-03T05:43:53.974Z,30.50
2017-12-03T05:46:22.286Z,32.10
2017-12-03T05:48:50.543Z,29.90
2017-12-03T05:51:18.818Z,28.10
2017-12-03T05:53:47.112Z,36.40
2017-12-03T05:56:16.124Z,19.83
2017-12-03T05:58:44.367Z,20.33
2017-12-03T06:01:12.689Z,19.17
2017-12-03T06:03:40.990Z,18.33
2017-12-03T06:06:09.420Z,18.77
2017-12-03T06:08:37.696Z,19.30
2017-12-03T06:11:05.934Z,17.80
2017-12-03T06:13:34.225Z,17.40
2017-12-03T06:16:03.283Z,17.50
2017-12-03T06:18:31.563Z,19.93
2017-12-03T06:20:59.821Z,17.63
2017-12-03T06:23:28.351Z,18.50
2017-12-03T06:25:56.613Z,18.60
2017-12-03T06:28:24.891Z,17.40
2017-12-03T06:30:53.988Z,19.97
2017-12-03T06:33:22.231Z,18.00
2017-12-03T06:35:51.256Z,19.30
2017-12-03T06:38:19.551Z,19.50
2017-12-03T06:40:47.816Z,19.80
2017-12-03T06:43:16.063Z,22.83
2017-12-03T06:45:44.401Z,24.60
2017-12-03T06:48:12.690Z,30.27
2017-12-03T06:50:40.928Z,32.80
2017-12-03T06:53:09.205Z,44.03
2017-12-03T06:55:37.457Z,25.80
2017-12-03T06:58:05.745Z,32.63
2017-12-03T07:00:34.068Z,33.03
2017-12-03T07:03:02.338Z,35.60
2017-12-03T07:05:31.612Z,29.80
2017-12-03T07:07:59.918Z,36.13
2017-12-03T07:10:28.228Z,20.03
2017-12-03T07:12:56.493Z,25.90
2017-12-03T07:15:24.798Z,33.47
2017-12-03T07:17:53.123Z,36.90
2017-12-03T07:20:21.492Z,27.73
2017-12-03T07:22:49.835Z,29.10
2017-12-03T07:25:18.099Z,40.23
2017-12-03T07:27:46.388Z,30.83
2017-12-03T07:30:14.685Z,43.33
2017-12-03T07:32:42.936Z,32.87
2017-12-03T07:35:11.219Z,22.70
2017-12-03T07:37:39.531Z,28.67
2017-12-03T07:40:08.588Z,42.13
2017-12-03T07:42:36.905Z,27.10
2017-12-03T07:45:05.973Z,39.97
2017-12-03T07:47:34.261Z,28.10
2017-12-03T07:50:02.521Z,48.23
2017-12-03T07:52:30.791Z,46.43
2017-12-03T07:54:59.048Z,24.10
2017-12-03T07:57:27.281Z,34.90
2017-12-03T07:59:55.587Z,31.00
2017-12-03T08:02:23.865Z,21.07
2017-12-03T08:04:52.162Z,36.97
2017-12-03T08:07:20.447Z,37.30
2017-12-03T08:09:48.723Z,51.60
2017-12-03T08:12:16.991Z,46.47
2017-12-03T08:14:45.335Z,45.73
2017-12-03T08:17:13.599Z,42.30
2017-12-03T08:19:42.608Z,42.13
2017-12-03T08:22:10.873Z,29.23
2017-12-03T08:24:39.913Z,39.70
2017-12-03T08:27:08.200Z,44.07
2017-12-03T08:29:36.514Z,47.13
2017-12-03T08:32:05.778Z,53.70
2017-12-03T08:34:34.040Z,47.00
2017-12-03T08:37:02.342Z,52.70
2017-12-03T08:39:30.624Z,45.13
2017-12-03T08:41:58.901Z,45.53
2017-12-03T08:44:27.414Z,31.93
2017-12-03T08:46:55.744Z,44.17
2017-12-03T08:49:24.883Z,27.00
2017-12-03T08:51:53.208Z,38.20
2017-12-03T08:54:21.531Z,40.23
2017-12-03T08:56:50.179Z,44.40
2017-12-03T08:59:18.503Z,33.20
2017-12-03T09:01:47.138Z,35.40
2017-12-03T09:04:15.432Z,21.90
2017-12-03T09:06:43.912Z,21.07
2017-12-03T09:09:12.947Z,22.67
2017-12-03T09:11:41.270Z,25.00
2017-12-03T09:14:09.607Z,20.97
2017-12-03T09:16:37.909Z,36.87
2017-12-03T09:19:06.461Z,42.00
2017-12-03T09:21:35.585Z,30.70
2017-12-03T09:24:03.827Z,26.07
2017-12-03T09:26:32.065Z,42.30
2017-12-03T09:29:00.370Z,33.17
2017-12-03T09:31:28.696Z,27.60
2017-12-03T09:33:56.993Z,31.00
2017-12-03T09:36:25.423Z,34.67
2017-12-03T09:38:53.755Z,34.73
2017-12-03T09:41:22.056Z,22.27
2017-12-03T09:43:50.409Z,35.40
2017-12-03T09:46:18.657Z,30.97
2017-12-03T09:48:46.955Z,38.97
2017-12-03T09:51:15.279Z,33.17
2017-12-03T09:53:43.528Z,33.03
2017-12-03T09:56:12.614Z,32.97
2017-12-03T09:58:41.719Z,42.47
2017-12-03T10:01:10.014Z,36.70
2017-12-03T10:03:38.891Z,44.07
2017-12-03T10:06:09.053Z,35.37
2017-12-03T10:08:37.358Z,37.33
2017-12-03T10:11:05.614Z,36.33
2017-12-03T10:13:34.529Z,44.10
2017-12-03T10:16:03.560Z,43.27
2017-12-03T10:18:31.798Z,35.17
2017-12-03T10:21:01.520Z,30.10
2017-12-03T10:23:30.598Z,35.20
2017-12-03T10:25:58.839Z,38.00
2017-12-03T10:28:27.148Z,33.90
2017-12-03T10:30:55.427Z,42.07
2017-12-03T10:33:23.698Z,37.20
2017-12-03T10:35:51.986Z,33.97
2017-12-03T10:38:21.003Z,36.40
2017-12-03T10:40:49.270Z,36.50
2017-12-03T10:43:17.649Z,57.60
2017-12-03T10:45:46.673Z,36.50
2017-12-03T10:48:14.947Z,38.57
2017-12-03T10:50:43.262Z,35.00
2017-12-03T10:53:11.539Z,41.93
2017-12-03T10:55:39.796Z,65.57
2017-12-03T10:58:09.067Z,81.13
2017-12-03T11:00:37.882Z,30.57
2017-12-03T11:03:06.138Z,51.90
2017-12-03T11:05:34.531Z,35.33
2017-12-03T11:08:02.820Z,32.20
2017-12-03T11:10:31.090Z,29.43
2017-12-03T11:12:59.440Z,38.23
2017-12-03T11:15:27.754Z,26.37
2017-12-03T11:17:56.023Z,25.77
2017-12-03T11:20:24.440Z,25.50
2017-12-03T11:22:52.711Z,25.50
2017-12-03T11:25:21.731Z,25.50
2017-12-03T11:27:50.177Z,24.87
2017-12-03T11:30:19.206Z,29.80
2017-12-03T11:32:47.499Z,25.20
2017-12-03T11:35:16.654Z,25.73
2017-12-03T11:37:45.668Z,24.60
2017-12-03T11:40:13.974Z,30.17
2017-12-03T11:42:43.059Z,26.50
2017-12-03T11:45:11.416Z,29.20
2017-12-03T11:47:39.702Z,24.80
2017-12-03T11:50:08.788Z,30.00
2017-12-03T11:52:37.057Z,22.13
2017-12-03T11:55:05.389Z,30.00
2017-12-03T11:57:34.431Z,23.00
2017-12-03T12:00:02.744Z,23.03
2017-12-03T12:02:31.038Z,27.67
2017-12-03T12:04:59.313Z,28.97
2017-12-03T12:07:27.552Z,24.60
2017-12-03T12:09:57.917Z,28.40
2017-12-03T12:12:26.203Z,26.20
2017-12-03T12:14:54.509Z,21.13
2017-12-03T12:17:22.942Z,18.80
2017-12-03T12:19:51.189Z,25.10
2017-12-03T12:22:19.440Z,27.23
2017-12-03T12:24:47.766Z,21.97
2017-12-03T12:27:16.014Z,25.97
2017-12-03T12:29:44.270Z,25.40
2017-12-03T12:32:12.768Z,24.30
2017-12-03T12:34:41.051Z,29.47
2017-12-03T12:37:09.299Z,24.87
2017-12-03T12:39:37.584Z,25.27
2017-12-03T12:42:05.873Z,28.73
2017-12-03T12:44:34.154Z,32.40
2017-12-03T12:47:02.446Z,33.27
2017-12-03T12:49:30.729Z,30.07
2017-12-03T12:51:59.062Z,31.43
2017-12-03T12:54:27.433Z,23.07
2017-12-03T12:56:55.700Z,25.53
2017-12-03T12:59:24.730Z,25.33
2017-12-03T13:01:53.072Z,19.40
2017-12-03T13:04:22.123Z,18.20
2017-12-03T13:06:50.374Z,15.53
2017-12-03T13:09:18.786Z,17.90
2017-12-03T13:11:47.039Z,18.00
2017-12-03T13:14:15.288Z,21.20
2017-12-03T13:16:43.831Z,19.60
2017-12-03T13:19:12.867Z,19.57
2017-12-03T13:21:41.094Z,19.97
2017-12-03T13:24:09.627Z,43.33
2017-12-03T13:26:38.093Z,18.70
2017-12-03T13:29:07.494Z,20.17
2017-12-03T13:31:35.926Z,18.50
2017-12-03T13:34:04.172Z,19.43
2017-12-03T13:36:32.446Z,19.57
2017-12-03T13:39:00.735Z,18.30
2017-12-03T13:41:28.978Z,21.80
2017-12-03T13:43:57.228Z,25.63
2017-12-03T13:46:25.547Z,27.00
2017-12-03T13:48:53.777Z,30.50
2017-12-03T13:51:23.191Z,24.13
2017-12-03T13:53:52.263Z,25.07
2017-12-03T13:56:20.519Z,16.30
2017-12-03T13:58:48.765Z,16.53
2017-12-03T14:01:17.149Z,16.83
2017-12-03T14:03:45.438Z,17.23
2017-12-03T14:06:13.744Z,17.17
2017-12-03T14:08:42.072Z,18.70
2017-12-03T14:11:10.905Z,14.60
2017-12-03T14:13:39.163Z,14.60
2017-12-03T14:16:07.847Z,13.93
2017-12-03T14:18:36.167Z,15.00
2017-12-03T14:21:05.193Z,14.10
2017-12-03T14:23:34.298Z,22.80
2017-12-03T14:26:02.568Z,14.23
2017-12-03T14:28:30.811Z,13.53
2017-12-03T14:30:59.889Z,15.40
2017-12-03T14:33:28.168Z,14.60
2017-12-03T14:35:57.185Z,14.20
2017-12-03T14:38:25.478Z,13.33
2017-12-03T14:40:53.728Z,14.50
2017-12-03T14:43:22.742Z,13.63
2017-12-03T14:45:51.026Z,19.33
2017-12-03T14:48:19.323Z,15.53
2017-12-03T14:50:47.627Z,15.00
2017-12-03T14:53:15.960Z,20.00
2017-12-03T14:55:44.228Z,21.37
2017-12-03T14:58:12.477Z,16.13
2017-12-03T15:00:41.671Z,18.73
2017-12-03T15:03:10.712Z,18.57
2017-12-03T15:05:38.967Z,17.00
2017-12-03T15:08:07.317Z,17.43
2017-12-03T15:10:36.339Z,14.13
2017-12-03T15:13:04.597Z,15.13
2017-12-03T15:15:32.907Z,16.70
2017-12-03T15:18:01.224Z,16.57
2017-12-03T15:20:30.323Z,17.10
2017-12-03T15:22:58.685Z,17.67
2017-12-03T15:25:27.110Z,20.63
2017-12-03T15:27:56.303Z,27.67
2017-12-03T15:30:24.618Z,21.07
2017-12-03T15:32:52.880Z,19.40
2017-12-03T15:35:21.316Z,16.67
2017-12-03T15:37:50.436Z,19.73
2017-12-03T15:40:18.718Z,18.80
2017-12-03T15:42:47.007Z,19.70
2017-12-03T15:45:15.314Z,17.20
2017-12-03T15:47:43.603Z,16.80
2017-12-03T15:50:11.916Z,20.93
2017-12-03T15:52:40.247Z,16.17
2017-12-03T15:55:08.535Z,18.00
2017-12-03T15:57:37.541Z,17.20
2017-12-03T16:00:06.682Z,20.90
2017-12-03T16:02:34.962Z,22.17
2017-12-03T16:05:03.213Z,20.23
2017-12-03T16:07:31.548Z,19.83
2017-12-03T16:09:59.824Z,21.00
2017-12-03T16:12:28.115Z,18.57
2017-12-03T16:14:56.454Z,23.60
2017-12-03T16:17:24.697Z,35.20
2017-12-03T16:19:52.977Z,33.77
2017-12-03T16:22:21.352Z,22.53
2017-12-03T16:24:49.646Z,17.50
2017-12-03T16:27:17.947Z,20.33
2017-12-03T16:29:46.359Z,20.37
2017-12-03T16:32:14.604Z,31.80
2017-12-03T16:34:42.853Z,22.30
2017-12-03T16:37:11.147Z,21.20
2017-12-03T16:39:39.419Z,20.80
2017-12-03T16:42:07.703Z,25.70
2017-12-03T16:44:36.046Z,23.47
2017-12-03T16:47:04.344Z,23.07
2017-12-03T16:49:32.619Z,24.30
2017-12-03T16:52:00.915Z,30.70
2017-12-03T16:54:29.157Z,23.10
2017-12-03T16:56:57.428Z,23.97
2017-12-03T16:59:25.722Z,25.70
2017-12-03T17:01:53.959Z,24.87
2017-12-03T17:04:22.297Z,26.00
2017-12-03T17:06:50.632Z,40.20
2017-12-03T17:09:18.885Z,24.60
2017-12-03T17:11:47.204Z,54.97
2017-12-03T17:14:15.523Z,50.17
2017-12-03T17:16:44.550Z,35.90
2017-12-03T17:19:12.807Z,30.27
2017-12-03T17:21:41.878Z,25.17
2017-12-03T17:24:10.200Z,26.50
2017-12-03T17:26:38.465Z,25.07
2017-12-03T17:29:06.740Z,28.83
2017-12-03T17:31:35.011Z,24.43
2017-12-03T17:34:03.294Z,26.33
2017-12-03T17:36:31.590Z,31.57
2017-12-03T17:38:59.831Z,27.17
2017-12-03T17:41:28.131Z,28.43
2017-12-03T17:43:56.435Z,26.33
2017-12-03T17:46:24.671Z,26.20
2017-12-03T17:48:52.910Z,35.43
2017-12-03T17:51:21.949Z,27.37
2017-12-03T17:53:50.193Z,32.10
2017-12-03T17:56:19.203Z,34.27
2017-12-03T17:58:47.496Z,46.83
2017-12-03T18:01:15.726Z,32.87
2017-12-03T18:03:43.990Z,29.20
2017-12-03T18:06:12.263Z,39.30
2017-12-03T18:08:40.515Z,29.63
2017-12-03T18:11:08.739Z,29.13
2017-12-03T18:13:37.028Z,32.27
2017-12-03T18:16:05.292Z,28.87
2017-12-03T18:18:34.316Z,29.33
2017-12-03T18:34:11.069Z,35.00
2017-12-03T18:36:39.303Z,40.23
2017-12-03T18:39:07.536Z,33.90
2017-12-03T18:41:35.793Z,33.20
2017-12-03T18:44:04.027Z,30.03
2017-12-03T18:46:33.197Z,34.97
2017-12-03T18:49:01.528Z,33.37
2017-12-03T18:51:29.761Z,32.67
2017-12-03T18:53:58.005Z,30.10
2017-12-03T18:56:26.411Z,29.53
2017-12-03T18:58:54.646Z,28.73
2017-12-03T19:01:22.875Z,32.17
2017-12-03T19:03:51.199Z,37.87
2017-12-03T19:06:19.448Z,34.57
2017-12-03T19:08:48.452Z,39.30
2017-12-03T19:11:16.768Z,34.40
2017-12-03T19:13:44.997Z,34.87
2017-12-03T19:16:13.994Z,32.40
2017-12-03T19:18:42.299Z,36.13
2017-12-03T19:21:10.555Z,38.73
2017-12-03T19:23:38.783Z,43.70
2017-12-03T19:26:07.071Z,42.70
2017-12-03T19:28:35.294Z,44.80
2017-12-03T19:31:03.514Z,58.40
2017-12-03T19:33:31.816Z,33.87
2017-12-03T19:36:00.807Z,47.47
2017-12-03T19:38:29.802Z,45.70
2017-12-03T19:40:59.006Z,47.20
2017-12-03T19:43:27.263Z,39.03
2017-12-03T19:45:56.289Z,32.67
2017-12-03T19:48:24.669Z,27.27
2017-12-03T19:50:52.895Z,27.43
2017-12-03T19:53:21.130Z,28.80
2017-12-03T19:55:49.423Z,33.23
2017-12-03T19:58:17.703Z,31.57
2017-12-03T20:00:45.942Z,39.50
2017-12-03T20:03:14.227Z,35.37
2017-12-03T20:05:42.472Z,30.70
2017-12-03T20:08:11.502Z,32.40
2017-12-03T20:10:39.780Z,28.80
2017-12-03T20:13:08.791Z,30.00
2017-12-03T20:15:37.345Z,28.87
2017-12-03T20:18:05.603Z,30.13
2017-12-03T20:20:33.837Z,30.47
2017-12-03T20:23:02.076Z,31.87
2017-12-03T20:25:30.351Z,31.50
2017-12-03T20:27:58.647Z,28.13
2017-12-03T20:30:27.672Z,33.23
2017-12-03T20:32:57.094Z,30.57
2017-12-03T20:35:25.330Z,27.67
2017-12-03T20:37:53.563Z,28.60
2017-12-03T20:40:21.830Z,28.57
2017-12-03T20:42:50.068Z,29.77
2017-12-03T20:45:19.090Z,30.40
2017-12-03T20:47:47.353Z,27.40
2017-12-03T20:50:16.342Z,27.60
2017-12-03T20:52:45.332Z,32.87
2017-12-03T20:55:14.397Z,32.60
2017-12-03T20:57:42.958Z,29.87
2017-12-03T21:00:11.211Z,27.97
2017-12-03T21:02:39.533Z,28.87
2017-12-03T21:05:07.775Z,28.00
2017-12-03T21:07:36.026Z,26.70
2017-12-03T21:10:05.125Z,27.13
2017-12-03T21:12:33.352Z,30.20
2017-12-03T21:15:01.575Z,25.00
2017-12-03T21:17:29.852Z,28.47
2017-12-03T21:19:58.075Z,26.47
2017-12-03T21:22:26.302Z,25.40
2017-12-03T21:24:54.563Z,25.57
2017-12-03T21:27:23.550Z,25.23
2017-12-03T21:29:52.554Z,25.73
2017-12-03T21:32:21.591Z,23.33
2017-12-03T21:34:49.839Z,26.53
2017-12-03T21:37:18.095Z,23.57
2017-12-03T21:39:47.128Z,24.47
2017-12-03T21:42:15.357Z,20.73
2017-12-03T21:44:44.355Z,20.47
2017-12-03T21:47:13.637Z,20.10
2017-12-03T21:49:42.639Z,19.63
2017-12-03T21:52:11.626Z,19.40
2017-12-03T21:54:40.959Z,18.30
2017-12-03T21:57:09.203Z,17.90
2017-12-03T21:59:38.198Z,18.97
2017-12-03T22:02:07.265Z,17.77
2017-12-03T22:04:35.492Z,16.80
2017-12-03T22:07:03.768Z,16.90
2017-12-03T22:09:32.012Z,15.13
2017-12-03T22:12:00.312Z,15.00
2017-12-03T22:14:28.538Z,16.80
2017-12-03T22:16:56.780Z,16.00
2017-12-03T22:19:25.174Z,16.87
2017-12-03T22:21:53.414Z,14.77
2017-12-03T22:24:22.406Z,16.63
2017-12-03T22:26:51.551Z,14.90
2017-12-03T22:29:19.782Z,15.13
2017-12-03T22:31:47.996Z,15.83
2017-12-03T22:34:16.295Z,14.17
2017-12-03T22:36:44.530Z,16.33
2017-12-03T22:39:12.746Z,13.43
2017-12-03T22:41:41.853Z,13.67
2017-12-03T22:44:10.841Z,13.40
2017-12-03T22:46:39.076Z,12.67
2017-12-03T22:49:07.354Z,14.00
2017-12-03T22:51:35.658Z,12.37
2017-12-03T22:54:03.873Z,13.90
2017-12-03T22:56:32.876Z,14.13
2017-12-03T22:59:01.163Z,13.77
2017-12-03T23:01:29.388Z,13.03
2017-12-03T23:03:57.630Z,13.30
2017-12-03T23:06:26.078Z,12.37
2017-12-03T23:08:54.307Z,11.43
2017-12-03T23:11:22.551Z,10.50
2017-12-03T23:13:50.856Z,12.50
2017-12-03T23:16:19.083Z,11.80
2017-12-03T23:18:47.305Z,12.80
2017-12-03T23:21:15.589Z,11.67
2017-12-03T23:23:43.819Z,11.00
2017-12-03T23:26:12.043Z,11.73
2017-12-03T23:28:41.093Z,11.50
2017-12-03T23:31:09.319Z,14.43
2017-12-03T23:33:38.331Z,11.60
2017-12-03T23:36:07.393Z,11.70
2017-12-03T23:38:35.624Z,11.77
2017-12-03T23:41:04.620Z,11.40
2017-12-03T23:43:32.868Z,10.70
2017-12-03T23:46:01.080Z,13.00
2017-12-03T23:48:29.380Z,11.33
2017-12-03T23:50:57.599Z,14.23
2017-12-03T23:53:25.834Z,14.10
2017-12-03T23:55:54.111Z,10.83
2017-12-03T23:58:22.341Z,11.83
